Time;durP1;ratioP1;P1;durP2;ratioP2;P2;SDS_P1;SDS_P2;PMS_P1;PMS_P2;Temp;Humidity;BMP_temperature;BMP_pressure;BME280_temperature;BME280_humidity;BME280_pressure;Samples;Min_cycle;Max_cycle;Signal;HPM_P1;HPM_P2
2022/09/01 00:00:40;;;;;;;23.27;20.77;;;;;;;15.29;100.00;155287.31;5071474;28;20454;-84
2022/09/01 00:03:09;;;;;;;22.87;20.47;;;;;;;15.32;100.00;155296.41;5071357;28;20466;-84
2022/09/01 00:05:36;;;;;;;22.50;20.10;;;;;;;15.31;100.00;155292.50;5067798;28;20505;-84
2022/09/01 00:08:04;;;;;;;29.47;21.27;;;;;;;15.32;100.00;155295.09;5051074;28;20449;-83
2022/09/01 00:10:30;;;;;;;23.57;21.10;;;;;;;15.29;100.00;155287.31;5051333;28;20481;-83
2022/09/01 00:12:57;;;;;;;22.37;20.17;;;;;;;15.19;100.00;155263.94;5064212;28;20469;-84
2022/09/01 00:15:26;;;;;;;24.03;21.20;;;;;;;15.14;100.00;155250.91;5071083;28;21058;-84
2022/09/01 00:17:52;;;;;;;24.23;21.80;;;;;;;15.14;100.00;155250.91;5071017;28;20525;-83
2022/09/01 00:20:19;;;;;;;22.90;20.50;;;;;;;15.14;100.00;155250.91;5070950;28;20869;-84
2022/09/01 00:22:46;;;;;;;24.10;21.47;;;;;;;15.08;100.00;155234.03;5072379;28;20431;-84
2022/09/01 00:25:13;;;;;;;24.27;21.80;;;;;;;15.05;100.00;155226.22;5054219;28;20855;-84
2022/09/01 00:27:39;;;;;;;24.03;21.40;;;;;;;15.07;100.00;155231.41;5054041;28;20933;-84
2022/09/01 00:30:07;;;;;;;25.50;22.37;;;;;;;15.07;100.00;155232.72;5071894;28;20458;-83
2022/09/01 00:32:35;;;;;;;23.70;21.30;;;;;;;15.10;100.00;155239.22;5054408;28;20599;-84
2022/09/01 00:35:02;;;;;;;24.20;21.70;;;;;;;15.02;100.00;155218.44;5070809;28;20460;-84
2022/09/01 00:37:29;;;;;;;21.40;19.10;;;;;;;14.97;100.00;155205.44;5070911;28;20450;-84
2022/09/01 00:39:55;;;;;;;24.70;20.30;;;;;;;14.96;100.00;155204.13;5070781;28;20434;-84
2022/09/01 00:42:22;;;;;;;22.90;20.50;;;;;;;14.87;100.00;155180.78;5071019;28;20446;-84
2022/09/01 00:44:49;;;;;;;22.40;19.53;;;;;;;14.93;100.00;155195.06;5070749;28;20488;-84
2022/09/01 00:47:16;;;;;;;20.43;18.33;;;;;;;14.95;100.00;155200.25;5059571;28;20531;-84
2022/09/01 00:49:47;;;;;;;21.70;19.60;;;;;;;14.92;100.00;155192.47;5070609;28;20442;-84
2022/09/01 00:52:16;;;;;;;23.13;20.20;;;;;;;14.85;100.00;155175.53;5070757;28;20545;-84
2022/09/01 00:54:46;;;;;;;21.63;19.40;;;;;;;14.82;100.00;155166.47;5070493;28;20426;-84
2022/09/01 00:57:13;;;;;;;21.33;19.13;;;;;;;14.80;100.00;155162.56;5053249;28;20510;-84
2022/09/01 00:59:46;;;;;;;21.83;19.63;;;;;;;14.73;100.00;155144.38;5070572;28;20480;-84
2022/09/01 01:02:13;;;;;;;23.20;19.30;;;;;;;14.74;100.00;155145.69;5070822;28;20541;-84
2022/09/01 01:04:42;;;;;;;21.67;19.37;;;;;;;14.74;100.00;155147.00;5053360;28;20487;-84
2022/09/01 01:07:11;;;;;;;22.47;20.07;;;;;;;14.73;100.00;155143.09;5070767;28;20540;-84
2022/09/01 01:09:40;;;;;;;21.77;19.47;;;;;;;14.72;100.00;155140.50;5070663;28;20442;-84
2022/09/01 01:12:10;;;;;;;23.70;21.17;;;;;;;14.71;100.00;155139.22;5054015;28;20446;-85
2022/09/01 01:14:38;;;;;;;23.27;20.77;;;;;;;14.76;100.00;155150.88;5070285;28;20445;-84
2022/09/01 01:17:06;;;;;;;21.57;19.23;;;;;;;14.74;100.00;155145.69;5070755;28;20477;-84
2022/09/01 01:25:15;;;;;;;20.97;18.83;;;;;;;14.70;100.00;155135.28;5050394;28;20412;-84
2022/09/01 01:27:42;;;;;;;20.80;18.70;;;;;;;14.64;100.00;155122.28;5066889;28;20816;-84
2022/09/01 01:30:10;;;;;;;22.53;20.17;;;;;;;14.62;100.00;155115.81;5066619;28;20501;-84
2022/09/01 01:32:38;;;;;;;20.70;18.60;;;;;;;14.64;100.00;155121.00;5066828;28;20427;-84
2022/09/01 01:35:06;;;;;;;21.73;19.53;;;;;;;14.68;100.00;155130.09;5049971;28;20821;-84
2022/09/01 01:37:34;;;;;;;21.43;19.10;;;;;;;14.61;100.00;155114.50;5053140;28;20457;-85
2022/09/01 01:40:01;;;;;;;23.77;20.40;;;;;;;14.61;100.00;155114.50;5053820;28;20442;-84
2022/09/01 01:42:30;;;;;;;23.07;20.30;;;;;;;14.55;100.00;155098.94;5070068;28;20445;-84
2022/09/01 01:44:57;;;;;;;24.47;21.50;;;;;;;14.55;100.00;155098.94;5053388;28;20442;-84
2022/09/01 01:47:24;;;;;;;22.33;19.93;;;;;;;14.52;100.00;155091.16;5070147;28;20536;-84
2022/09/01 01:49:53;;;;;;;24.23;21.67;;;;;;;14.59;100.00;155108.00;5070183;28;20793;-85
2022/09/01 01:52:20;;;;;;;22.80;19.93;;;;;;;14.52;100.00;155089.84;5053574;28;20438;-85
2022/09/01 01:54:47;;;;;;;21.73;19.43;;;;;;;14.54;100.00;155096.31;5053059;28;20548;-84
2022/09/01 01:57:16;;;;;;;21.77;18.77;;;;;;;14.52;100.00;155091.16;5053188;28;20581;-84
2022/09/01 01:59:45;;;;;;;21.33;18.80;;;;;;;14.51;100.00;155088.53;5053344;28;20430;-85
2022/09/01 02:02:12;;;;;;;24.27;21.60;;;;;;;14.50;100.00;155085.97;5053380;28;20440;-84
2022/09/01 02:04:41;;;;;;;21.83;19.57;;;;;;;14.43;100.00;155067.75;5053039;28;20434;-84
2022/09/01 02:07:11;;;;;;;23.67;21.10;;;;;;;14.44;100.00;155070.38;5070571;28;20429;-85
2022/09/01 02:09:42;;;;;;;25.80;23.20;;;;;;;14.42;100.00;155065.19;5056886;28;20438;-85
2022/09/01 02:12:09;;;;;;;23.00;20.60;;;;;;;14.40;100.00;155059.94;5056943;28;20572;-84
2022/09/01 02:14:37;;;;;;;24.63;21.87;;;;;;;14.37;100.00;155052.19;5056864;28;20943;-84
2022/09/01 02:17:06;;;;;;;22.13;19.83;;;;;;;14.41;100.00;155062.56;5073671;28;20434;-85
2022/09/01 02:19:36;;;;;;;23.83;21.10;;;;;;;14.32;100.00;155037.91;5073089;28;20495;-85
2022/09/01 02:22:04;;;;;;;24.20;21.57;;;;;;;14.35;100.00;155046.97;5057016;28;20426;-84
2022/09/01 02:24:31;;;;;;;24.23;20.97;;;;;;;14.36;100.00;155049.59;5073318;28;20558;-84
2022/09/01 02:26:59;;;;;;;24.70;22.30;;;;;;;14.35;100.00;155045.72;5056503;28;20547;-85
2022/09/01 02:29:28;;;;;;;28.37;23.27;;;;;;;14.38;100.00;155053.47;5056234;28;20545;-85
2022/09/01 02:31:56;;;;;;;27.27;24.30;;;;;;;14.32;100.00;155037.91;5073298;28;20572;-85
2022/09/01 02:34:27;;;;;;;29.20;26.23;;;;;;;14.27;100.00;155024.88;5056570;28;20438;-85
2022/09/01 02:36:56;;;;;;;25.27;22.57;;;;;;;14.28;100.00;155028.75;5073361;28;20444;-84
2022/09/01 02:39:27;;;;;;;26.47;23.63;;;;;;;14.25;100.00;155020.94;5056145;28;20444;-85
2022/09/01 02:41:54;;;;;;;26.37;23.57;;;;;;;14.25;100.00;155019.66;5073177;28;20434;-84
2022/09/01 02:44:26;;;;;;;27.33;24.10;;;;;;;14.25;100.00;155020.94;5056367;28;20470;-84
2022/09/01 02:46:53;;;;;;;26.00;21.07;;;;;;;14.31;100.00;155036.59;5056300;28;20549;-85
2022/09/01 02:49:27;;;;;;;24.93;22.40;;;;;;;14.33;100.00;155040.47;5072809;28;20457;-85
2022/09/01 02:51:56;;;;;;;24.27;20.47;;;;;;;14.21;100.00;155010.59;5056383;28;20466;-84
2022/09/01 02:54:24;;;;;;;24.97;21.80;;;;;;;14.21;100.00;155010.59;5073075;28;20446;-84
2022/09/01 02:56:53;;;;;;;25.33;22.67;;;;;;;14.24;100.00;155018.38;5055860;28;20477;-84
2022/09/01 02:59:22;;;;;;;24.93;21.90;;;;;;;14.29;100.00;155031.38;5055683;28;20445;-84
2022/09/01 03:01:50;;;;;;;24.80;21.77;;;;;;;14.25;100.00;155019.66;5055678;28;20523;-84
2022/09/01 03:04:19;;;;;;;26.50;23.70;;;;;;;14.18;100.00;155002.78;5056000;28;20898;-84
2022/09/01 03:06:48;;;;;;;29.13;26.03;;;;;;;14.13;100.00;154989.81;5072546;28;20854;-84
2022/09/01 03:09:18;;;;;;;25.90;22.10;;;;;;;14.12;100.00;154987.19;5055746;28;20426;-84
2022/09/01 03:11:48;;;;;;;26.90;23.20;;;;;;;14.11;100.00;154983.31;5055779;28;20470;-84
2022/09/01 03:14:15;;;;;;;26.70;23.80;;;;;;;14.11;100.00;154983.31;5056035;28;20529;-85
2022/09/01 03:16:42;;;;;;;24.93;22.33;;;;;;;14.07;100.00;154972.91;5072510;28;20438;-84
2022/09/01 03:19:10;;;;;;;22.90;20.43;;;;;;;14.05;100.00;154969.03;5082848;28;20870;-84
2022/09/01 03:21:40;;;;;;;25.63;21.87;;;;;;;14.08;100.00;154975.53;5069041;28;20451;-84
2022/09/01 03:24:11;;;;;;;25.20;21.60;;;;;;;14.03;100.00;154965.13;5052286;28;20431;-84
2022/09/01 03:26:39;;;;;;;24.40;21.80;;;;;;;14.02;100.00;154961.25;5052398;28;20930;-85
2022/09/01 03:29:07;;;;;;;22.23;19.97;;;;;;;13.98;100.00;154950.81;5052346;28;20439;-85
2022/09/01 03:31:34;;;;;;;23.77;21.23;;;;;;;13.96;100.00;154946.94;5052137;28;20568;-85
2022/09/01 03:34:02;;;;;;;26.70;23.83;;;;;;;14.03;100.00;154963.84;5085532;28;20841;-85
2022/09/01 03:36:33;;;;;;;24.60;21.97;;;;;;;14.00;100.00;154956.06;5059531;28;20504;-84
2022/09/01 03:39:00;;;;;;;24.80;22.07;;;;;;;13.99;100.00;154953.44;5071706;28;20445;-84
2022/09/01 03:41:31;;;;;;;25.37;22.77;;;;;;;14.00;100.00;154957.31;5071975;28;20645;-84
2022/09/01 03:43:58;;;;;;;24.40;21.00;;;;;;;14.02;100.00;154961.25;5071867;28;20438;-84
2022/09/01 03:46:30;;;;;;;25.60;22.60;;;;;;;14.02;100.00;154961.25;5055016;28;20442;-85
2022/09/01 03:49:02;;;;;;;24.40;21.80;;;;;;;14.02;100.00;154961.25;5055093;28;20426;-84
2022/09/01 03:51:30;;;;;;;24.13;21.07;;;;;;;14.00;100.00;154956.06;5055748;28;20871;-84
2022/09/01 03:54:00;;;;;;;25.07;22.37;;;;;;;14.08;100.00;154976.84;5070921;28;20944;-85
2022/09/01 03:56:28;;;;;;;26.27;22.30;;;;;;;14.02;100.00;154961.25;5071490;28;20999;-84
2022/09/01 03:58:58;;;;;;;27.90;21.67;;;;;;;14.07;100.00;154972.91;5071700;28;20431;-85
2022/09/01 04:01:26;;;;;;;26.20;23.40;;;;;;;14.01;100.00;154958.63;5054879;28;20449;-84
2022/09/01 04:03:53;;;;;;;24.50;21.00;;;;;;;14.03;100.00;154963.84;5054456;28;20823;-84
2022/09/01 04:06:24;;;;;;;24.77;22.00;;;;;;;13.98;100.00;154950.81;5054810;28;20499;-84
2022/09/01 04:09:01;;;;;;;26.60;22.37;;;;;;;13.98;100.00;154950.81;5054604;28;20782;-84
2022/09/01 04:11:32;;;;;;;26.87;23.60;;;;;;;13.99;100.00;154954.75;5071066;28;20499;-85
2022/09/01 04:14:00;;;;;;;24.40;21.50;;;;;;;14.00;100.00;154956.06;5054747;28;20529;-84
2022/09/01 04:19:19;;;;;;;24.90;22.20;;;;;;;13.98;100.00;154950.81;5054306;28;20434;-84
2022/09/01 04:21:49;;;;;;;25.10;22.00;;;;;;;13.95;100.00;154943.09;5054517;28;20556;-85
2022/09/01 04:24:17;;;;;;;26.10;22.70;;;;;;;13.89;100.00;154928.81;5054380;28;20434;-85
2022/09/01 04:26:47;;;;;;;24.73;20.77;;;;;;;13.92;100.00;154935.28;5054381;28;20863;-84
2022/09/01 04:29:17;;;;;;;25.23;22.53;;;;;;;13.91;100.00;154932.66;5054154;28;20492;-85
2022/09/01 04:31:52;;;;;;;25.87;21.47;;;;;;;13.92;100.00;154935.28;5070341;28;20498;-84
2022/09/01 04:34:19;;;;;;;25.33;21.90;;;;;;;13.89;100.00;154927.50;5054360;28;20437;-85
2022/09/01 04:36:47;;;;;;;25.37;21.97;;;;;;;13.91;100.00;154932.66;5072578;28;20974;-85
2022/09/01 04:39:14;;;;;;;24.63;22.03;;;;;;;13.88;100.00;154924.88;5070749;28;20433;-85
2022/09/01 04:41:44;;;;;;;25.67;21.33;;;;;;;13.87;100.00;154922.31;5054428;28;20446;-85
2022/09/01 04:44:14;;;;;;;25.03;22.27;;;;;;;13.86;100.00;154921.00;5054025;28;20436;-85
2022/09/01 04:46:45;;;;;;;25.70;22.87;;;;;;;13.87;100.00;154922.31;5054010;28;20446;-85
2022/09/01 04:49:18;;;;;;;26.63;22.13;;;;;;;13.86;100.00;154919.69;5104612;28;20928;-85
2022/09/01 04:51:47;;;;;;;29.30;19.83;;;;;;;13.87;100.00;154923.56;5054157;28;20470;-85
2022/09/01 04:54:15;;;;;;;24.03;21.30;;;;;;;13.91;100.00;154932.66;5072118;28;20422;-85
2022/09/01 04:56:48;;;;;;;26.57;22.13;;;;;;;13.92;100.00;154935.28;5070413;28;20576;-85
2022/09/01 04:59:19;;;;;;;24.57;21.00;;;;;;;13.97;100.00;154948.25;5070397;28;20465;-85
2022/09/01 05:01:49;;;;;;;26.03;22.80;;;;;;;14.00;100.00;154956.06;5053678;28;20442;-85
2022/09/01 05:04:20;;;;;;;24.47;21.83;;;;;;;14.01;100.00;154959.94;5053941;28;20525;-85
2022/09/01 05:06:49;;;;;;;25.10;20.77;;;;;;;14.04;100.00;154967.72;5054210;28;20461;-79
2022/09/01 05:09:18;;;;;;;22.20;19.47;;;;;;;14.08;100.00;154976.84;5053504;28;20947;-79
2022/09/01 05:12:09;;;;;;;22.00;19.17;;;;;;;14.20;100.00;155006.66;5053953;28;20473;-79
2022/09/01 05:14:37;;;;;;;20.40;18.20;;;;;;;14.27;100.00;155024.88;5053678;28;20437;-79
2022/09/01 05:17:09;;;;;;;18.73;16.80;;;;;;;14.32;100.00;155039.16;5053410;28;20446;-79
2022/09/01 05:19:36;;;;;;;20.20;18.17;;;;;;;14.34;100.00;155043.09;5071201;28;20444;-79
2022/09/01 05:22:03;;;;;;;19.47;17.43;;;;;;;14.37;100.00;155050.88;5053970;28;20449;-79
2022/09/01 05:24:33;;;;;;;21.47;19.17;;;;;;;14.41;100.00;155062.56;5053674;28;20804;-79
2022/09/01 05:27:04;;;;;;;21.57;19.10;;;;;;;14.44;100.00;155069.06;5053948;28;20499;-79
2022/09/01 05:29:35;;;;;;;23.03;19.87;;;;;;;14.46;100.00;155075.53;5053377;28;20782;-79
2022/09/01 05:32:07;;;;;;;20.80;18.60;;;;;;;14.48;100.00;155080.72;5053715;28;20535;-79
2022/09/01 05:34:37;;;;;;;22.30;19.90;;;;;;;14.55;100.00;155098.94;5053489;28;20440;-78
2022/09/01 05:37:07;;;;;;;23.87;18.80;;;;;;;14.62;100.00;155117.09;5104032;28;20449;-79
2022/09/01 05:39:35;;;;;;;21.13;18.90;;;;;;;14.60;100.00;155111.94;5069893;28;20434;-79
2022/09/01 05:42:03;;;;;;;22.47;20.07;;;;;;;14.56;100.00;155100.25;5071964;28;20480;-79
2022/09/01 05:44:29;;;;;;;23.50;20.20;;;;;;;14.53;100.00;155093.72;5057407;28;20429;-79
2022/09/01 05:46:59;;;;;;;23.13;20.80;;;;;;;14.54;100.00;155095.03;5074313;28;20444;-79
2022/09/01 05:49:31;;;;;;;24.50;20.97;;;;;;;14.51;100.00;155088.53;5056863;28;20434;-79
2022/09/01 05:52:03;;;;;;;23.03;19.60;;;;;;;14.54;100.00;155095.03;5074089;28;20481;-79
2022/09/01 05:54:31;;;;;;;29.60;21.93;;;;;;;14.54;100.00;155095.03;5057218;28;20438;-79
2022/09/01 05:56:58;;;;;;;24.03;20.30;;;;;;;14.54;100.00;155095.03;5057265;28;20492;-79
2022/09/01 05:59:30;;;;;;;24.40;21.83;;;;;;;14.59;100.00;155108.00;5073447;28;20448;-79
2022/09/01 06:02:16;;;;;;;23.00;20.50;;;;;;;14.56;100.00;155101.50;5073828;28;20460;-79
2022/09/01 06:04:43;;;;;;;25.10;21.47;;;;;;;14.57;100.00;155104.13;5056922;28;20498;-79
2022/09/01 06:07:17;;;;;;;22.60;19.10;;;;;;;14.62;100.00;155117.09;5057446;28;21011;-79
2022/09/01 06:09:51;;;;;;;24.60;20.20;;;;;;;14.64;100.00;155122.28;5056035;28;20441;-79
2022/09/01 06:12:23;;;;;;;24.83;20.27;;;;;;;14.70;100.00;155135.28;5056964;28;20488;-79
2022/09/01 06:14:51;;;;;;;24.50;20.50;;;;;;;14.77;100.00;155154.81;5073318;28;20580;-79
2022/09/01 06:17:23;;;;;;;24.87;21.30;;;;;;;14.78;100.00;155157.38;5057017;28;20795;-79
2022/09/01 06:19:51;;;;;;;24.30;20.10;;;;;;;14.82;100.00;155166.47;5056387;28;20422;-79
2022/09/01 06:22:19;;;;;;;24.10;21.53;;;;;;;14.85;100.00;155175.53;5057007;28;20491;-79
2022/09/01 06:24:47;;;;;;;23.20;20.73;;;;;;;14.85;100.00;155174.28;5056587;28;20454;-79
2022/09/01 06:27:16;;;;;;;21.10;18.90;;;;;;;14.90;100.00;155187.28;5056450;28;20481;-79
2022/09/01 06:29:44;;;;;;;23.73;19.80;;;;;;;14.90;100.00;155187.28;5056118;28;20430;-79
2022/09/01 06:32:11;;;;;;;22.30;19.90;;;;;;;14.96;100.00;155202.81;5073244;28;20466;-79
2022/09/01 06:34:41;;;;;;;23.70;19.20;;;;;;;15.02;100.00;155218.44;5073170;28;20438;-79
2022/09/01 06:37:08;;;;;;;20.93;18.77;;;;;;;15.04;100.00;155223.63;5073147;28;20537;-79
2022/09/01 06:39:37;;;;;;;19.67;17.70;;;;;;;15.08;100.00;155234.03;5056219;28;20438;-79
2022/09/01 06:42:05;;;;;;;19.47;17.37;;;;;;;15.11;100.00;155243.16;5056589;28;20450;-79
2022/09/01 06:44:42;;;;;;;20.60;18.60;;;;;;;15.11;100.00;155243.16;5056043;28;20446;-79
2022/09/01 06:47:09;;;;;;;19.40;17.40;;;;;;;15.11;100.00;155243.16;5073180;28;20474;-79
2022/09/01 06:49:38;;;;;;;21.10;17.57;;;;;;;15.17;100.00;155257.41;5072407;28;20955;-79
2022/09/01 06:52:10;;;;;;;20.83;17.93;;;;;;;15.21;100.00;155267.81;5056079;28;20474;-78
2022/09/01 06:54:42;;;;;;;21.00;17.70;;;;;;;15.25;100.00;155278.19;5055161;28;20464;-78
2022/09/01 06:57:09;;;;;;;19.60;17.20;;;;;;;15.34;100.00;155301.59;5074234;28;20509;-79
2022/09/01 06:59:36;;;;;;;20.37;18.27;;;;;;;15.44;100.00;155326.28;5055452;28;20496;-79
2022/09/01 07:02:05;;;;;;;17.53;15.63;;;;;;;15.43;100.00;155323.72;5089267;28;20438;-79
2022/09/01 07:04:58;;;;;;;18.40;16.43;;;;;;;15.43;100.00;155323.72;5073496;28;20891;-79
2022/09/01 07:07:33;;;;;;;20.23;18.10;;;;;;;15.60;100.00;155369.22;5055829;28;20441;-79
2022/09/01 07:10:30;;;;;;;20.37;16.60;;;;;;;15.96;100.00;155461.56;5073381;28;20454;-78
2022/09/01 07:13:17;;;;;;;20.57;17.33;;;;;;;16.52;100.00;155604.59;5055975;28;20812;-79
2022/09/01 07:15:46;;;;;;;16.90;15.10;;;;;;;16.83;100.00;155686.59;5072504;28;20841;-79
2022/09/01 07:18:13;;;;;;;17.40;15.63;;;;;;;17.29;100.00;155803.72;5054966;28;21025;-80
2022/09/01 07:20:41;;;;;;;19.50;17.53;;;;;;;17.65;100.00;155897.47;5072163;28;20442;-80
2022/09/01 07:23:09;;;;;;;15.83;14.23;;;;;;;17.82;100.00;155941.72;5073473;28;20830;-80
2022/09/01 07:25:42;;;;;;;15.07;13.67;;;;;;;17.82;100.00;155941.72;5055349;28;20446;-80
2022/09/01 07:28:17;;;;;;;16.50;14.67;;;;;;;18.08;100.00;156009.41;5055560;28;20528;-80
2022/09/01 07:30:48;;;;;;;15.70;14.00;;;;;;;18.09;100.00;156012.03;5055383;28;20446;-80
2022/09/01 07:33:22;;;;;;;14.53;13.13;;;;;;;18.27;100.00;156057.59;5055206;28;20946;-80
2022/09/01 07:35:54;;;;;;;16.83;14.00;;;;;;;18.19;100.00;156038.09;5054985;28;20491;-80
2022/09/01 07:38:22;;;;;;;15.20;13.63;;;;;;;17.91;100.00;155965.16;5072077;28;20442;-80
2022/09/01 07:40:52;;;;;;;15.97;14.30;;;;;;;17.67;100.00;155901.38;5088451;28;21003;-79
2022/09/01 07:43:44;;;;;;;17.17;14.50;;;;;;;17.52;100.00;155863.59;5071819;28;20854;-79
2022/09/01 07:46:32;;;;;;;15.37;13.83;;;;;;;17.39;100.00;155831.06;5066179;28;20532;-79
2022/09/01 07:49:01;;;;;;;15.33;13.73;;;;;;;17.31;100.00;155808.91;5054739;28;20507;-79
2022/09/01 07:51:30;;;;;;;14.77;13.17;;;;;;;17.30;100.00;155806.28;5054882;28;20990;-79
2022/09/01 07:54:01;;;;;;;16.20;14.17;;;;;;;17.33;100.00;155815.44;5071613;28;20539;-79
2022/09/01 07:56:30;;;;;;;15.83;14.27;;;;;;;17.39;100.00;155829.75;5054864;28;20474;-79
2022/09/01 07:58:58;;;;;;;15.33;13.47;;;;;;;17.32;100.00;155811.50;5054545;28;20460;-79
2022/09/01 08:01:26;;;;;;;15.60;14.00;;;;;;;17.10;100.00;155754.25;5071504;28;20500;-79
2022/09/01 08:03:55;;;;;;;16.63;14.83;;;;;;;16.96;100.00;155719.13;5054673;28;20538;-79
2022/09/01 08:06:25;;;;;;;16.00;14.40;;;;;;;16.85;100.00;155690.50;5054970;28;20460;-79
2022/09/01 08:08:53;;;;;;;17.50;15.67;;;;;;;16.85;100.00;155691.81;5054438;28;20450;-79
2022/09/01 08:11:23;;;;;;;17.07;15.27;;;;;;;16.87;100.00;155695.69;5071325;28;20438;-79
2022/09/01 08:13:53;;;;;;;16.87;15.23;;;;;;;16.86;100.00;155694.41;5054478;28;20647;-79
2022/09/01 08:16:20;;;;;;;18.40;15.83;;;;;;;16.92;100.00;155710.00;5054783;28;20477;-79
2022/09/01 08:18:48;;;;;;;16.63;15.03;;;;;;;16.87;100.00;155697.00;5071421;28;20446;-79
2022/09/01 08:21:25;;;;;;;16.13;14.47;;;;;;;16.90;100.00;155704.81;5071265;28;20446;-79
2022/09/01 08:23:58;;;;;;;16.20;14.57;;;;;;;16.91;100.00;155707.44;5054660;28;20434;-79
2022/09/01 08:26:26;;;;;;;14.83;12.77;;;;;;;17.03;100.00;155738.63;5054333;28;20461;-79
2022/09/01 08:28:55;;;;;;;14.70;13.07;;;;;;;17.02;100.00;155736.00;5054312;28;20434;-79
2022/09/01 08:31:29;;;;;;;13.40;12.10;;;;;;;16.98;100.00;155724.31;5070922;28;20450;-79
2022/09/01 08:33:57;;;;;;;14.93;13.43;;;;;;;16.92;100.00;155710.00;5070821;28;20555;-79
2022/09/01 08:36:24;;;;;;;13.67;12.37;;;;;;;16.97;100.00;155723.00;5070906;28;20951;-79
2022/09/01 08:38:51;;;;;;;16.53;14.93;;;;;;;17.12;100.00;155759.47;5072057;28;20437;-79
2022/09/01 08:41:24;;;;;;;14.90;13.33;;;;;;;17.10;100.00;155754.25;5070223;28;20457;-79
2022/09/01 08:44:00;;;;;;;14.67;13.23;;;;;;;17.13;100.00;155762.06;5103678;28;20537;-79
2022/09/01 08:46:28;;;;;;;14.27;12.80;;;;;;;17.19;100.00;155777.66;5054142;28;20442;-79
2022/09/01 08:48:58;;;;;;;15.87;12.10;;;;;;;17.12;100.00;155759.47;5070851;28;20473;-79
2022/09/01 08:51:30;;;;;;;14.10;12.67;;;;;;;17.13;100.00;155763.34;5053882;28;20434;-79
2022/09/01 08:54:06;;;;;;;12.93;11.70;;;;;;;17.34;100.00;155818.00;5054263;28;20469;-79
2022/09/01 08:56:36;;;;;;;13.57;12.27;;;;;;;17.40;100.00;155832.31;5053731;28;21036;-78
2022/09/01 08:59:06;;;;;;;14.83;13.30;;;;;;;17.30;100.00;155807.63;5070565;28;20537;-79
2022/09/01 09:02:01;;;;;;;13.83;12.43;;;;;;;17.45;100.00;155845.34;5068558;28;20503;-79
2022/09/01 09:04:46;;;;;;;12.83;11.53;;;;;;;17.42;100.00;155837.56;5070730;28;20835;-79
2022/09/01 09:07:18;;;;;;;12.30;10.90;;;;;;;17.47;100.00;155850.56;5070878;28;20461;-79
2022/09/01 09:09:50;;;;;;;11.27;10.17;;;;;;;17.46;100.00;155849.25;5070258;28;20473;-79
2022/09/01 09:12:28;;;;;;;12.90;11.17;;;;;;;17.47;100.00;155850.56;5072194;28;20487;-79
2022/09/01 09:15:05;;;;;;;11.50;10.40;;;;;;;17.50;100.00;155858.38;5053809;28;20426;-79
2022/09/01 09:17:35;;;;;;;11.50;10.30;;;;;;;17.54;100.00;155868.84;5069610;28;20430;-79
2022/09/01 09:20:03;;;;;;;13.97;10.53;;;;;;;17.44;100.00;155844.06;5069962;28;20661;-79
2022/09/01 09:22:31;;;;;;;12.67;11.37;;;;;;;17.50;100.00;155858.38;5070264;28;20446;-79
2022/09/01 09:25:03;;;;;;;10.97;9.63;;;;;;;17.55;100.00;155871.47;5071517;28;20453;-79
2022/09/01 09:27:33;;;;;;;11.53;10.43;;;;;;;17.59;100.00;155881.84;5087508;28;20466;-79
2022/09/01 09:30:02;;;;;;;12.30;11.10;;;;;;;17.64;100.00;155894.84;5103632;28;20436;-79
2022/09/01 09:32:44;;;;;;;13.30;11.90;;;;;;;17.74;100.00;155920.88;5070412;28;20441;-79
2022/09/01 09:35:22;;;;;;;11.93;10.73;;;;;;;17.80;100.00;155936.53;5050091;28;20431;-79
2022/09/01 09:37:49;;;;;;;12.40;11.10;;;;;;;17.93;100.00;155970.38;5083769;28;20837;-79
2022/09/01 09:40:18;;;;;;;11.17;10.07;;;;;;;18.07;100.00;156006.84;5051264;28;20847;-79
2022/09/01 09:43:02;;;;;;;12.17;10.90;;;;;;;18.13;98.02;156022.50;5050264;28;20469;-79
2022/09/01 09:45:33;;;;;;;11.90;10.73;;;;;;;18.04;99.88;155999.03;5050356;28;20447;-79
2022/09/01 09:48:03;;;;;;;10.73;9.73;;;;;;;18.09;100.00;156012.03;5050210;28;20442;-79
2022/09/01 09:50:32;;;;;;;10.67;9.67;;;;;;;18.18;100.00;156034.19;5057088;28;20507;-79
2022/09/01 09:53:15;;;;;;;10.60;9.50;;;;;;;18.17;99.96;156031.56;5104414;28;20472;-79
2022/09/01 09:56:02;;;;;;;9.97;9.07;;;;;;;18.31;99.30;156068.06;5069981;28;20454;-79
2022/09/01 09:58:35;;;;;;;9.63;8.67;;;;;;;18.40;99.71;156090.22;5071665;28;20451;-79
2022/09/01 10:01:07;;;;;;;9.47;8.57;;;;;;;18.48;96.22;156112.38;5066464;28;20459;-79
2022/09/01 10:03:36;;;;;;;8.80;7.90;;;;;;;18.58;97.84;156137.13;5083547;28;20518;-79
2022/09/01 10:06:03;;;;;;;8.23;7.43;;;;;;;18.65;95.04;156156.66;5051410;28;20438;-79
2022/09/01 10:08:43;;;;;;;8.40;7.60;;;;;;;18.69;92.00;156165.81;5082705;28;21000;-79
2022/09/01 10:11:12;;;;;;;6.93;6.07;;;;;;;18.80;89.18;156194.44;5086664;28;21014;-79
2022/09/01 10:13:39;;;;;;;7.67;7.07;;;;;;;18.82;88.86;156199.69;5069928;28;20462;-78
2022/09/01 10:16:18;;;;;;;7.20;6.50;;;;;;;18.82;87.85;156199.69;5069866;28;20437;-79
2022/09/01 10:18:47;;;;;;;7.13;6.33;;;;;;;18.91;87.70;156221.78;5069882;28;20438;-78
2022/09/01 10:21:16;;;;;;;6.90;6.30;;;;;;;18.99;89.18;156242.66;5086170;28;20804;-79
2022/09/01 10:23:43;;;;;;;7.27;6.67;;;;;;;18.90;88.08;156219.22;5086552;28;20865;-78
2022/09/01 10:26:14;;;;;;;7.03;6.43;;;;;;;18.89;88.92;156216.59;5086440;28;20445;-79
2022/09/01 10:28:46;;;;;;;7.27;6.57;;;;;;;18.98;87.71;156241.38;5087608;28;20434;-79
2022/09/01 10:31:15;;;;;;;7.23;6.60;;;;;;;18.98;87.17;156241.38;5056183;28;20568;-79
2022/09/01 10:33:41;;;;;;;8.00;7.30;;;;;;;19.10;88.17;156272.63;5073206;28;20572;-79
2022/09/01 10:36:09;;;;;;;7.13;6.47;;;;;;;19.41;87.80;156353.47;5073088;28;20557;-79
2022/09/01 10:38:36;;;;;;;6.83;6.23;;;;;;;19.40;87.24;156349.59;5074352;28;20466;-78
2022/09/01 10:41:08;;;;;;;7.10;6.50;;;;;;;19.28;83.25;156318.22;5072568;28;20610;-78
2022/09/01 10:43:39;;;;;;;6.43;5.80;;;;;;;19.31;84.25;156326.06;5074334;28;20814;-79
2022/09/01 10:46:41;;;;;;;6.47;5.87;;;;;;;19.54;81.23;156384.78;5072901;28;20437;-79
2022/09/01 10:49:42;;;;;;;6.97;6.37;;;;;;;19.61;82.52;156403.03;5069069;28;20433;-78
2022/09/01 10:52:09;;;;;;;6.60;6.00;;;;;;;19.50;84.05;156375.66;5106793;28;20503;-78
2022/09/01 10:54:53;;;;;;;7.47;6.87;;;;;;;19.62;83.69;156406.91;5074327;28;20476;-79
2022/09/01 10:57:28;;;;;;;6.57;5.90;;;;;;;19.69;84.26;156423.88;5073893;28;20478;-79
2022/09/01 10:59:56;;;;;;;6.63;6.03;;;;;;;19.72;83.54;156433.03;5088711;28;20455;-79
2022/09/01 11:02:23;;;;;;;6.33;5.83;;;;;;;19.69;81.92;156423.88;5074256;28;20445;-78
2022/09/01 11:05:19;;;;;;;6.13;5.60;;;;;;;19.67;81.76;156418.69;5072551;28;20526;-78
2022/09/01 11:07:46;;;;;;;5.93;5.33;;;;;;;19.78;82.14;156448.63;5089418;28;20437;-78
2022/09/01 11:10:25;;;;;;;6.03;5.40;;;;;;;19.76;82.27;156442.13;5089119;28;20465;-79
2022/09/01 11:13:18;;;;;;;5.83;5.33;;;;;;;19.72;83.09;156431.72;5089538;28;20442;-79
2022/09/01 11:15:45;;;;;;;7.10;6.20;;;;;;;19.74;82.14;156436.91;5056729;28;20548;-78
2022/09/01 11:18:15;;;;;;;6.33;5.33;;;;;;;19.92;81.70;156483.84;5072411;28;20437;-79
2022/09/01 11:20:44;;;;;;;6.10;5.60;;;;;;;20.09;80.05;156528.22;5073417;28;20452;-79
2022/09/01 11:23:13;;;;;;;6.20;5.70;;;;;;;20.26;82.23;156571.25;5088953;28;20804;-79
2022/09/01 11:25:42;;;;;;;7.57;6.97;;;;;;;20.11;82.87;156532.09;5105948;28;20461;-79
2022/09/01 11:28:44;;;;;;;7.20;6.50;;;;;;;19.90;83.97;156478.66;5073590;28;20422;-79